KDTW

Detroit Metropolitan Wayne County Airport

Detroit, Michigan, USA
METAR KDTW 211453Z 31010KT 280V340 10SM OVC030 03/M04 A3031 RMK AO2 SLP269 T00331039 50008 $
Observed Flight Rules
Oct-21 @ 14:53 UTC (8 minutes ago) Marginal Visual Flight Rules
Wind Visibility Clouds
310° at 10 knots 10 miles
  • Overcast at 3,000' AGL
Temperatures Readings
Current 3°C / 37°F
Dewpoint -4°C / 25°F
Humidity 60%
Altimeter 30.31" Hg
Pressure 1026.9 hPa
Elevation 195
METAR KDTW 211453Z 31010KT 280V340 10SM OVC030 03/M04 A3031 RMK AO2 SLP269 T00331039 50008 $
Observed Flight Rules
Oct-21 @ 14:53 UTC
(8 minutes ago)
MVFR
Wind Visibility
310° at 10 knots 10 miles
Clouds
  • Overcast at 3,000' AGL
Temperature Dewpoint
3°C / 37°F -4°C / 25°F
Humidity Altimeter Pressure
60% 30.31" Hg 1026.9 hPa